Time;durP1;ratioP1;P1;durP2;ratioP2;P2;SDS_P1;SDS_P2;PMS_P1;PMS_P2;Temp;Humidity;BMP_temperature;BMP_pressure;BME280_temperature;BME280_humidity;BME280_pressure;Samples;Min_cycle;Max_cycle;Signal;HPM_P1;HPM_P2
2022/08/02 00:01:15;;;;;;;;;;;;;;;;;;5053539;28;20031;-79
2022/08/02 00:03:41;;;;;;;;;;;;;;;;;;5053065;28;19916;-79
2022/08/02 00:06:06;;;;;;;;;;;;;;;;;;5064429;28;19920;-79
2022/08/02 00:08:32;;;;;;;;;;;;;;;;;;5068484;28;20004;-76
2022/08/02 00:10:57;;;;;;;;;;;;;;;;;;5051696;28;19912;-78
2022/08/02 00:13:22;;;;;;;;;;;;;;;;;;5072208;28;19912;-79
2022/08/02 00:15:48;;;;;;;;;;;;;;;;;;5052017;28;19939;-78
2022/08/02 00:18:13;;;;;;;;;;;;;;;;;;5067038;28;19991;-77
2022/08/02 00:20:38;;;;;;;;;;;;;;;;;;5066021;28;19995;-80
2022/08/02 00:23:04;;;;;;;;;;;;;;;;;;5058378;28;19920;-81
2022/08/02 00:25:29;;;;;;;;;;;;;;;;;;5056413;28;19913;-76
2022/08/02 00:27:54;;;;;;;;;;;;;;;;;;5054030;28;19912;-76
2022/08/02 00:30:20;;;;;;;;;;;;;;;;;;5048190;28;20165;-76
2022/08/02 00:32:45;;;;;;;;;;;;;;;;;;5045342;28;19951;-77
2022/08/02 00:35:11;;;;;;;;;;;;;;;;;;5052653;28;19962;-77
2022/08/02 00:37:37;;;;;;;;;;;;;;;;;;5052531;28;19920;-77
2022/08/02 00:40:02;;;;;;;;;;;;;;;;;;5034967;28;19913;-77
2022/08/02 00:42:27;;;;;;;;;;;;;;;;;;5044291;28;19939;-77
2022/08/02 00:44:53;;;;;;;;;;;;;;;;;;5048163;28;19913;-78
2022/08/02 00:47:18;;;;;;;;;;;;;;;;;;5032241;28;20288;-76
2022/08/02 00:49:43;;;;;;;;;;;;;;;;;;5052751;28;19912;-76
2022/08/02 00:52:09;;;;;;;;;;;;;;;;;;5052442;28;20236;-77
2022/08/02 00:54:34;;;;;;;;;;;;;;;;;;5052309;28;19967;-76
2022/08/02 00:56:59;;;;;;;;;;;;;;;;;;5034570;28;19924;-76
2022/08/02 00:59:25;;;;;;;;;;;;;;;;;;5052413;28;20397;-78
2022/08/02 01:01:51;;;;;;;;;;;;;;;;;;5051684;28;19923;-76
2022/08/02 01:04:16;;;;;;;;;;;;;;;;;;5051865;28;20331;-77
2022/08/02 01:06:41;;;;;;;;;;;;;;;;;;5051957;28;19913;-76
2022/08/02 01:09:07;;;;;;;;;;;;;;;;;;5052196;28;19970;-77
2022/08/02 01:11:32;;;;;;;;;;;;;;;;;;5051787;28;20260;-77
2022/08/02 01:13:57;;;;;;;;;;;;;;;;;;5032389;28;19912;-78
2022/08/02 01:16:23;;;;;;;;;;;;;;;;;;5028454;28;19927;-76
2022/08/02 01:18:48;;;;;;;;;;;;;;;;;;5033685;28;20261;-77
2022/08/02 01:21:14;;;;;;;;;;;;;;;;;;5050503;28;19960;-77
2022/08/02 01:23:39;;;;;;;;;;;;;;;;;;5035799;28;20419;-78
2022/08/02 01:26:04;;;;;;;;;;;;;;;;;;5014068;28;19919;-77
2022/08/02 01:28:30;;;;;;;;;;;;;;;;;;5042394;28;19925;-79
2022/08/02 01:30:55;;;;;;;;;;;;;;;;;;5052211;28;19913;-77
2022/08/02 01:33:20;;;;;;;;;;;;;;;;;;5034018;28;19917;-78
2022/08/02 01:35:46;;;;;;;;;;;;;;;;;;5051944;28;19924;-77
2022/08/02 01:38:11;;;;;;;;;;;;;;;;;;5034309;28;20042;-77
2022/08/02 01:40:37;;;;;;;;;;;;;;;;;;5052055;28;19912;-76
2022/08/02 01:43:02;;;;;;;;;;;;;;;;;;5051557;28;20376;-77
2022/08/02 01:45:27;;;;;;;;;;;;;;;;;;5049844;28;20315;-78
2022/08/02 01:47:53;;;;;;;;;;;;;;;;;;5031417;28;19967;-77
2022/08/02 01:50:18;;;;;;;;;;;;;;;;;;5014572;28;20364;-78
2022/08/02 01:52:43;;;;;;;;;;;;;;;;;;5031544;28;19967;-78
2022/08/02 01:55:09;;;;;;;;;;;;;;;;;;5031560;28;19913;-77
2022/08/02 01:57:34;;;;;;;;;;;;;;;;;;5031751;28;20023;-77
2022/08/02 01:59:59;;;;;;;;;;;;;;;;;;5030768;28;19921;-79
2022/08/02 02:02:25;;;;;;;;;;;;;;;;;;5031667;28;20376;-77
2022/08/02 02:04:50;;;;;;;;;;;;;;;;;;5047964;28;19920;-77
2022/08/02 02:07:15;;;;;;;;;;;;;;;;;;5017685;28;20033;-76
2022/08/02 02:09:41;;;;;;;;;;;;;;;;;;5050349;28;19924;-76
2022/08/02 02:12:06;;;;;;;;;;;;;;;;;;5051726;28;20280;-77
2022/08/02 02:14:32;;;;;;;;;;;;;;;;;;5055567;28;19912;-76
2022/08/02 02:16:57;;;;;;;;;;;;;;;;;;5055713;28;20285;-77
2022/08/02 02:19:22;;;;;;;;;;;;;;;;;;5054354;28;20059;-78
2022/08/02 02:21:48;;;;;;;;;;;;;;;;;;5034619;28;19913;-76
2022/08/02 02:24:13;;;;;;;;;;;;;;;;;;5055358;28;19913;-76
2022/08/02 02:26:38;;;;;;;;;;;;;;;;;;5037747;28;20387;-78
2022/08/02 02:29:04;;;;;;;;;;;;;;;;;;5054445;28;19919;-76
2022/08/02 02:31:29;;;;;;;;;;;;;;;;;;5055492;28;20355;-78
2022/08/02 02:33:54;;;;;;;;;;;;;;;;;;5055002;28;19955;-76
2022/08/02 02:36:20;;;;;;;;;;;;;;;;;;5034398;28;19928;-76
2022/08/02 02:38:45;;;;;;;;;;;;;;;;;;5053632;28;19928;-76
2022/08/02 02:41:11;;;;;;;;;;;;;;;;;;5055296;28;19916;-77
2022/08/02 02:43:36;;;;;;;;;;;;;;;;;;5053753;28;20414;-77
2022/08/02 02:46:01;;;;;;;;;;;;;;;;;;5037546;28;19913;-76
2022/08/02 02:48:27;;;;;;;;;;;;;;;;;;5037352;28;19908;-77
2022/08/02 02:50:52;;;;;;;;;;;;;;;;;;5037316;28;19955;-77
2022/08/02 02:53:17;;;;;;;;;;;;;;;;;;5051408;28;19921;-76
2022/08/02 02:55:42;;;;;;;;;;;;;;;;;;5053860;28;20311;-77
2022/08/02 02:58:08;;;;;;;;;;;;;;;;;;5037193;28;20299;-77
2022/08/02 03:03:17;;;;;;;;;;;;;;;;;;5036640;28;20616;-77
2022/08/02 03:05:43;;;;;;;;;;;;;;;;;;5055067;28;19948;-77
2022/08/02 03:08:08;;;;;;;;;;;;;;;;;;5054988;28;19920;-76
2022/08/02 03:10:33;;;;;;;;;;;;;;;;;;5048992;28;20371;-76
2022/08/02 03:12:59;;;;;;;;;;;;;;;;;;5036531;28;19912;-76
2022/08/02 03:15:24;;;;;;;;;;;;;;;;;;5055226;28;19995;-76
2022/08/02 03:17:49;;;;;;;;;;;;;;;;;;5040515;28;19913;-76
2022/08/02 03:20:15;;;;;;;;;;;;;;;;;;5061415;28;19976;-75
2022/08/02 03:22:40;;;;;;;;;;;;;;;;;;5045537;28;20355;-78
2022/08/02 03:25:06;;;;;;;;;;;;;;;;;;5066178;28;19912;-76
2022/08/02 03:27:31;;;;;;;;;;;;;;;;;;5052405;28;19917;-77
2022/08/02 03:29:56;;;;;;;;;;;;;;;;;;5046985;28;19913;-76
2022/08/02 03:32:22;;;;;;;;;;;;;;;;;;5030919;28;19935;-78
2022/08/02 03:34:47;;;;;;;;;;;;;;;;;;5045111;28;19921;-77
2022/08/02 03:37:12;;;;;;;;;;;;;;;;;;5040378;28;19917;-76
2022/08/02 03:39:38;;;;;;;;;;;;;;;;;;5036543;28;20045;-77
2022/08/02 03:42:03;;;;;;;;;;;;;;;;;;5036712;28;19936;-76
2022/08/02 03:44:28;;;;;;;;;;;;;;;;;;5044652;28;20272;-77
2022/08/02 03:46:54;;;;;;;;;;;;;;;;;;5039488;28;19913;-75
2022/08/02 03:49:19;;;;;;;;;;;;;;;;;;5056193;28;20402;-76
2022/08/02 03:51:44;;;;;;;;;;;;;;;;;;5040512;28;20451;-77
2022/08/02 03:54:10;;;;;;;;;;;;;;;;;;5057279;28;19967;-75
2022/08/02 03:56:35;;;;;;;;;;;;;;;;;;5054348;28;20007;-76
2022/08/02 03:59:01;;;;;;;;;;;;;;;;;;5054429;28;19916;-77
2022/08/02 04:01:26;;;;;;;;;;;;;;;;;;5032113;28;19909;-76
2022/08/02 04:03:51;;;;;;;;;;;;;;;;;;5053972;28;20020;-76
2022/08/02 04:06:17;;;;;;;;;;;;;;;;;;5054785;28;20433;-77
2022/08/02 04:08:42;;;;;;;;;;;;;;;;;;5054060;28;20023;-77
2022/08/02 04:13:51;;;;;;;;;;;;;;;;;;5053469;28;20392;-77
2022/08/02 04:16:17;;;;;;;;;;;;;;;;;;5052743;28;19964;-77
2022/08/02 04:18:42;;;;;;;;;;;;;;;;;;5048328;28;20020;-77
2022/08/02 04:21:07;;;;;;;;;;;;;;;;;;5036114;28;19971;-77
2022/08/02 04:23:33;;;;;;;;;;;;;;;;;;5035608;28;19919;-77
2022/08/02 04:25:58;;;;;;;;;;;;;;;;;;5053500;28;19920;-77
2022/08/02 04:28:23;;;;;;;;;;;;;;;;;;5053123;28;19966;-77
2022/08/02 04:30:49;;;;;;;;;;;;;;;;;;5053180;28;19920;-77
2022/08/02 04:33:14;;;;;;;;;;;;;;;;;;5052002;28;20273;-77
2022/08/02 04:35:39;;;;;;;;;;;;;;;;;;5040429;28;20360;-76
2022/08/02 04:38:05;;;;;;;;;;;;;;;;;;5033188;28;19920;-76
2022/08/02 04:40:30;;;;;;;;;;;;;;;;;;5033393;28;19913;-76
2022/08/02 04:42:55;;;;;;;;;;;;;;;;;;5015744;28;19940;-77
2022/08/02 04:45:21;;;;;;;;;;;;;;;;;;5032977;28;19917;-77
2022/08/02 04:47:46;;;;;;;;;;;;;;;;;;5015197;28;19917;-77
2022/08/02 04:50:11;;;;;;;;;;;;;;;;;;5033009;28;19913;-77
2022/08/02 04:52:37;;;;;;;;;;;;;;;;;;5036201;28;19930;-75
2022/08/02 04:55:02;;;;;;;;;;;;;;;;;;5050939;28;19963;-76
2022/08/02 05:00:12;;;;;;;;;;;;;;;;;;5053351;28;19916;-77
2022/08/02 05:02:37;;;;;;;;;;;;;;;;;;5052403;28;20415;-77
2022/08/02 05:05:02;;;;;;;;;;;;;;;;;;5053642;28;19967;-76
2022/08/02 05:07:28;;;;;;;;;;;;;;;;;;5054647;28;19914;-76
2022/08/02 05:09:53;;;;;;;;;;;;;;;;;;5051818;28;19991;-77
2022/08/02 05:12:21;;;;;;;;;;;;;;;;;;5053450;28;19913;-76
2022/08/02 05:14:46;;;;;;;;;;;;;;;;;;5052977;28;19924;-77
2022/08/02 05:17:11;;;;;;;;;;;;;;;;;;5035419;28;19917;-77
2022/08/02 05:19:37;;;;;;;;;;;;;;;;;;5035776;28;19909;-76
2022/08/02 05:22:02;;;;;;;;;;;;;;;;;;5057452;28;19913;-79
2022/08/02 05:24:27;;;;;;;;;;;;;;;;;;5054464;28;19972;-77
2022/08/02 05:26:53;;;;;;;;;;;;;;;;;;5049673;28;19913;-77
2022/08/02 05:29:18;;;;;;;;;;;;;;;;;;5052498;28;19966;-77
2022/08/02 05:31:44;;;;;;;;;;;;;;;;;;5052493;28;19913;-76
2022/08/02 05:34:10;;;;;;;;;;;;;;;;;;5051957;28;19955;-77
2022/08/02 05:36:35;;;;;;;;;;;;;;;;;;5050711;28;19916;-77
2022/08/02 05:39:01;;;;;;;;;;;;;;;;;;5017825;28;19917;-77
2022/08/02 05:41:26;;;;;;;;;;;;;;;;;;5051357;28;19913;-77
2022/08/02 05:43:52;;;;;;;;;;;;;;;;;;5035399;28;20388;-78
2022/08/02 05:46:17;;;;;;;;;;;;;;;;;;4998373;28;19913;-78
2022/08/02 05:48:43;;;;;;;;;;;;;;;;;;5032109;28;19963;-78
2022/08/02 05:51:09;;;;;;;;;;;;;;;;;;5032609;28;19913;-77
2022/08/02 05:53:34;;;;;;;;;;;;;;;;;;5032296;28;19913;-77
2022/08/02 05:56:00;;;;;;;;;;;;;;;;;;5014770;28;20465;-76
2022/08/02 05:58:27;;;;;;;;;;;;;;;;;;5030932;28;20289;-77
2022/08/02 06:00:52;;;;;;;;;;;;;;;;;;5037036;28;19952;-77
2022/08/02 06:03:18;;;;;;;;;;;;;;;;;;5014137;28;19920;-77
2022/08/02 06:05:43;;;;;;;;;;;;;;;;;;5032222;28;19909;-77
2022/08/02 06:08:09;;;;;;;;;;;;;;;;;;5014735;28;19913;-76
2022/08/02 06:10:34;;;;;;;;;;;;;;;;;;5035841;28;19913;-76
2022/08/02 06:12:59;;;;;;;;;;;;;;;;;;5037961;28;19913;-79
2022/08/02 06:15:25;;;;;;;;;;;;;;;;;;5040767;28;19913;-78
2022/08/02 06:17:50;;;;;;;;;;;;;;;;;;5042211;28;19921;-77
2022/08/02 06:20:15;;;;;;;;;;;;;;;;;;5040255;28;19913;-77
2022/08/02 06:22:44;;;;;;;;;;;;;;;;;;5039320;28;19925;-78
2022/08/02 06:25:09;;;;;;;;;;;;;;;;;;5006675;28;19913;-78
2022/08/02 06:27:35;;;;;;;;;;;;;;;;;;5042464;28;19917;-78
2022/08/02 06:30:00;;;;;;;;;;;;;;;;;;5040545;28;19910;-77
2022/08/02 06:32:25;;;;;;;;;;;;;;;;;;5020574;28;19928;-76
2022/08/02 06:34:51;;;;;;;;;;;;;;;;;;5055053;28;20000;-78
2022/08/02 06:37:16;;;;;;;;;;;;;;;;;;5065503;28;19920;-78
2022/08/02 06:39:42;;;;;;;;;;;;;;;;;;5064743;28;19943;-76
2022/08/02 06:42:07;;;;;;;;;;;;;;;;;;5065808;28;20020;-78
2022/08/02 06:44:38;;;;;;;;;;;;;;;;;;5029760;28;19913;-77
2022/08/02 06:47:03;;;;;;;;;;;;;;;;;;5042779;28;19923;-76
2022/08/02 06:49:29;;;;;;;;;;;;;;;;;;5056056;28;19935;-77
2022/08/02 06:51:54;;;;;;;;;;;;;;;;;;5050022;28;19912;-78
2022/08/02 06:54:20;;;;;;;;;;;;;;;;;;5053087;28;19912;-76
2022/08/02 06:56:46;;;;;;;;;;;;;;;;;;5051562;28;19917;-76
2022/08/02 06:59:11;;;;;;;;;;;;;;;;;;5052534;28;19924;-77
2022/08/02 07:01:36;;;;;;;;;;;;;;;;;;5037305;28;19961;-77
2022/08/02 07:04:02;;;;;;;;;;;;;;;;;;5054205;28;20038;-77
2022/08/02 07:06:27;;;;;;;;;;;;;;;;;;5054613;28;19920;-77
2022/08/02 07:08:52;;;;;;;;;;;;;;;;;;5051810;28;20291;-77
2022/08/02 07:11:18;;;;;;;;;;;;;;;;;;5055106;28;19912;-77
2022/08/02 07:13:43;;;;;;;;;;;;;;;;;;5054138;28;20316;-76
2022/08/02 07:16:08;;;;;;;;;;;;;;;;;;5054338;28;19920;-78
2022/08/02 07:18:34;;;;;;;;;;;;;;;;;;5036895;28;19913;-77
2022/08/02 07:21:00;;;;;;;;;;;;;;;;;;5053357;28;19913;-76
2022/08/02 07:23:25;;;;;;;;;;;;;;;;;;5036169;28;19909;-77
2022/08/02 07:25:50;;;;;;;;;;;;;;;;;;5049514;28;19945;-76
2022/08/02 07:28:16;;;;;;;;;;;;;;;;;;5036324;28;19993;-77
2022/08/02 07:30:42;;;;;;;;;;;;;;;;;;5054232;28;19962;-77
2022/08/02 07:33:07;;;;;;;;;;;;;;;;;;5053818;28;19913;-77
2022/08/02 07:35:32;;;;;;;;;;;;;;;;;;5036435;28;19912;-76
2022/08/02 07:37:58;;;;;;;;;;;;;;;;;;5036491;28;20376;-77
2022/08/02 07:40:23;;;;;;;;;;;;;;;;;;5036106;28;19962;-76
2022/08/02 07:42:50;;;;;;;;;;;;;;;;;;5048817;28;19921;-77
2022/08/02 07:45:16;;;;;;;;;;;;;;;;;;5036057;28;20371;-76
2022/08/02 07:47:41;;;;;;;;;;;;;;;;;;5036087;28;19939;-75
2022/08/02 07:50:07;;;;;;;;;;;;;;;;;;5054188;28;20004;-76
2022/08/02 07:52:32;;;;;;;;;;;;;;;;;;5053857;28;19913;-77
2022/08/02 07:54:58;;;;;;;;;;;;;;;;;;5053538;28;19916;-76
2022/08/02 07:57:24;;;;;;;;;;;;;;;;;;5053729;28;19917;-77
2022/08/02 07:59:50;;;;;;;;;;;;;;;;;;5036103;28;19921;-76
2022/08/02 08:02:15;;;;;;;;;;;;;;;;;;5048838;28;19999;-78
2022/08/02 08:04:41;;;;;;;;;;;;;;;;;;5053476;28;19979;-77
2022/08/02 08:07:08;;;;;;;;;;;;;;;;;;5053475;28;19909;-75
2022/08/02 08:09:38;;;;;;;;;;;;;;;;;;5035711;28;19913;-77
2022/08/02 08:12:04;;;;;;;;;;;;;;;;;;5053510;28;19920;-76
2022/08/02 08:14:29;;;;;;;;;;;;;;;;;;5053443;28;19913;-75
2022/08/02 08:16:54;;;;;;;;;;;;;;;;;;5030677;28;19925;-77
2022/08/02 08:19:20;;;;;;;;;;;;;;;;;;5052081;28;20269;-78
2022/08/02 08:21:45;;;;;;;;;;;;;;;;;;5019110;28;19962;-77
2022/08/02 08:24:11;;;;;;;;;;;;;;;;;;5035628;28;19920;-78
2022/08/02 08:26:38;;;;;;;;;;;;;;;;;;5035987;28;19913;-79
2022/08/02 08:29:05;;;;;;;;;;;;;;;;;;5019511;28;19956;-79
2022/08/02 08:31:30;;;;;;;;;;;;;;;;;;5052174;28;19928;-80
2022/08/02 08:33:55;;;;;;;;;;;;;;;;;;5025436;28;20455;-81
2022/08/02 08:36:21;;;;;;;;;;;;;;;;;;5033626;28;19924;-82
2022/08/02 08:38:47;;;;;;;;;;;;;;;;;;5015651;28;19921;-82
2022/08/02 08:41:12;;;;;;;;;;;;;;;;;;5016553;28;19964;-82
2022/08/02 08:43:38;;;;;;;;;;;;;;;;;;5032349;28;19935;-83
2022/08/02 08:46:03;;;;;;;;;;;;;;;;;;5017350;28;19975;-81
2022/08/02 08:48:28;;;;;;;;;;;;;;;;;;5033408;28;19925;-83
2022/08/02 08:50:54;;;;;;;;;;;;;;;;;;5014927;28;20004;-83
2022/08/02 08:53:19;;;;;;;;;;;;;;;;;;5052992;28;19913;-82
2022/08/02 08:55:44;;;;;;;;;;;;;;;;;;5019241;28;19960;-83
2022/08/02 08:58:10;;;;;;;;;;;;;;;;;;5053894;28;19913;-84
2022/08/02 09:00:35;;;;;;;;;;;;;;;;;;5053819;28;19912;-84
2022/08/02 09:03:01;;;;;;;;;;;;;;;;;;5053583;28;19999;-83
2022/08/02 09:05:26;;;;;;;;;;;;;;;;;;5053402;28;19920;-83
2022/08/02 09:07:52;;;;;;;;;;;;;;;;;;5047951;28;19983;-82
2022/08/02 09:10:17;;;;;;;;;;;;;;;;;;5051598;28;19944;-81
2022/08/02 09:12:42;;;;;;;;;;;;;;;;;;5035065;28;19913;-83
2022/08/02 09:15:08;;;;;;;;;;;;;;;;;;5052461;28;19912;-83
2022/08/02 09:17:33;;;;;;;;;;;;;;;;;;5060504;22;20372;-89
2022/08/02 09:19:58;;;;;;;;;;;;;;;;;;5058559;28;19934;-88
2022/08/02 09:22:24;;;;;;;;;;;;;;;;;;5074654;28;19912;-90
2022/08/02 09:24:50;;;;;;;;;;;;;;;;;;5068906;28;19928;-88
2022/08/02 09:27:18;;;;;;;;;;;;;;;;;;5531506;22;19947;-92
2022/08/02 09:29:47;;;;;;;;;;;;;;;;;;5048202;28;20391;-90
2022/08/02 09:32:20;;;;;;;;;;;;;;;;;;5028078;28;19914;-91
2022/08/02 09:34:50;;;;;;;;;;;;;;;;;;5157603;22;19924;-90
2022/08/02 09:37:16;;;;;;;;;;;;;;;;;;5054929;28;19927;-91
2022/08/02 09:39:41;;;;;;;;;;;;;;;;;;5083652;28;19917;-90
2022/08/02 09:42:09;;;;;;;;;;;;;;;;;;5067843;28;19913;-91
2022/08/02 09:44:34;;;;;;;;;;;;;;;;;;5061005;28;19913;-91
2022/08/02 09:47:00;;;;;;;;;;;;;;;;;;5055787;28;19932;-89
2022/08/02 09:49:25;;;;;;;;;;;;;;;;;;5045411;28;19913;-85
2022/08/02 09:51:51;;;;;;;;;;;;;;;;;;5086321;28;20347;-88
2022/08/02 09:54:16;;;;;;;;;;;;;;;;;;5047358;28;19936;-87
2022/08/02 09:56:42;;;;;;;;;;;;;;;;;;5062716;28;19917;-90
2022/08/02 09:59:07;;;;;;;;;;;;;;;;;;5066537;28;19913;-85
2022/08/02 10:01:33;;;;;;;;;;;;;;;;;;5076644;28;19913;-86
2022/08/02 10:03:58;;;;;;;;;;;;;;;;;;5044872;28;19917;-86
2022/08/02 10:06:23;;;;;;;;;;;;;;;;;;5053039;28;19955;-90
2022/08/02 10:08:49;;;;;;;;;;;;;;;;;;5032380;28;20372;-86
2022/08/02 10:11:14;;;;;;;;;;;;;;;;;;5077049;28;19939;-87
2022/08/02 10:13:40;;;;;;;;;;;;;;;;;;5049188;28;19913;-91
2022/08/02 10:16:05;;;;;;;;;;;;;;;;;;5043542;28;19971;-89
2022/08/02 10:18:31;;;;;;;;;;;;;;;;;;5029985;28;19992;-77
2022/08/02 10:20:56;;;;;;;;;;;;;;;;;;5065673;28;19916;-83
2022/08/02 10:23:21;;;;;;;;;;;;;;;;;;5057486;28;19919;-91
2022/08/02 10:25:47;;;;;;;;;;;;;;;;;;5036121;28;20280;-89
2022/08/02 10:28:12;;;;;;;;;;;;;;;;;;5022022;28;19913;-94
2022/08/02 10:30:38;;;;;;;;;;;;;;;;;;5032423;28;19912;-93
2022/08/02 10:33:03;;;;;;;;;;;;;;;;;;5028454;28;19913;-91
2022/08/02 10:35:29;;;;;;;;;;;;;;;;;;5037994;28;19921;-91
2022/08/02 10:37:55;;;;;;;;;;;;;;;;;;5030128;28;20525;-92
2022/08/02 10:40:25;;;;;;;;;;;;;;;;;;5038560;28;19913;-92
2022/08/02 10:42:50;;;;;;;;;;;;;;;;;;5048442;28;19923;-90
2022/08/02 10:45:16;;;;;;;;;;;;;;;;;;5084331;28;20018;-92
2022/08/02 10:47:41;;;;;;;;;;;;;;;;;;5041815;28;19924;-89
2022/08/02 10:50:07;;;;;;;;;;;;;;;;;;5046582;28;20007;-88
2022/08/02 10:52:33;;;;;;;;;;;;;;;;;;5071691;28;20064;-89
2022/08/02 10:54:58;;;;;;;;;;;;;;;;;;5074732;28;19912;-87
2022/08/02 10:57:24;;;;;;;;;;;;;;;;;;5076026;28;19951;-85
2022/08/02 10:59:49;;;;;;;;;;;;;;;;;;5035116;28;19920;-86
2022/08/02 11:02:15;;;;;;;;;;;;;;;;;;5079634;28;19966;-87
2022/08/02 11:04:40;;;;;;;;;;;;;;;;;;5080972;28;19909;-88
2022/08/02 11:07:05;;;;;;;;;;;;;;;;;;5063139;28;19916;-86
2022/08/02 11:09:31;;;;;;;;;;;;;;;;;;5064905;28;19976;-84
2022/08/02 11:11:56;;;;;;;;;;;;;;;;;;5083698;28;19920;-88
2022/08/02 11:14:21;;;;;;;;;;;;;;;;;;5056968;28;19912;-88
2022/08/02 11:16:47;;;;;;;;;;;;;;;;;;5041049;28;19921;-88
2022/08/02 11:19:12;;;;;;;;;;;;;;;;;;5081010;28;20000;-87
2022/08/02 11:21:38;;;;;;;;;;;;;;;;;;5040768;28;19974;-89
2022/08/02 11:24:03;;;;;;;;;;;;;;;;;;5071032;28;19913;-91
2022/08/02 11:26:28;;;;;;;;;;;;;;;;;;5040291;28;19913;-91
2022/08/02 11:28:54;;;;;;;;;;;;;;;;;;5054289;28;19955;-92
2022/08/02 11:31:19;;;;;;;;;;;;;;;;;;5056332;28;19958;-93
2022/08/02 11:33:44;;;;;;;;;;;;;;;;;;5068088;28;19913;-91
2022/08/02 11:36:10;;;;;;;;;;;;;;;;;;5057474;28;20016;-89
2022/08/02 11:38:36;;;;;;;;;;;;;;;;;;5077501;28;20314;-89
2022/08/02 11:41:02;;;;;;;;;;;;;;;;;;5072526;28;19987;-92
2022/08/02 11:43:29;;;;;;;;;;;;;;;;;;5041823;28;19962;-84
2022/08/02 11:45:55;;;;;;;;;;;;;;;;;;5043636;28;19912;-84
2022/08/02 11:48:20;;;;;;;;;;;;;;;;;;5075609;28;19920;-83
2022/08/02 11:50:46;;;;;;;;;;;;;;;;;;5076404;28;19912;-78
2022/08/02 11:53:11;;;;;;;;;;;;;;;;;;5081900;28;20015;-81
2022/08/02 11:55:36;;;;;;;;;;;;;;;;;;5076376;28;19913;-81
2022/08/02 11:58:02;;;;;;;;;;;;;;;;;;5071047;28;20297;-85
2022/08/02 12:00:27;;;;;;;;;;;;;;;;;;5071282;28;19912;-82
2022/08/02 12:02:53;;;;;;;;;;;;;;;;;;5062217;28;19917;-84
2022/08/02 12:05:18;;;;;;;;;;;;;;;;;;5073924;28;20001;-84
2022/08/02 12:07:43;;;;;;;;;;;;;;;;;;5076354;28;19912;-82
2022/08/02 12:10:09;;;;;;;;;;;;;;;;;;5068291;28;20380;-83
2022/08/02 12:12:34;;;;;;;;;;;;;;;;;;5064529;28;20331;-79
2022/08/02 12:15:00;;;;;;;;;;;;;;;;;;5041769;28;20278;-78
2022/08/02 12:20:09;;;;;;;;;;;;;;;;;;5059307;28;19962;-79
2022/08/02 12:22:36;;;;;;;;;;;;;;;;;;5062158;28;19917;-79
2022/08/02 12:25:02;;;;;;;;;;;;;;;;;;5067760;28;19913;-78
2022/08/02 12:27:27;;;;;;;;;;;;;;;;;;5056519;28;20019;-77
2022/08/02 12:29:53;;;;;;;;;;;;;;;;;;5068219;28;19916;-79
2022/08/02 12:32:18;;;;;;;;;;;;;;;;;;5061457;28;19913;-79
2022/08/02 12:34:44;;;;;;;;;;;;;;;;;;5072944;28;20286;-79
2022/08/02 12:37:09;;;;;;;;;;;;;;;;;;5073395;28;19970;-79
2022/08/02 12:39:34;;;;;;;;;;;;;;;;;;5058190;28;19923;-78
2022/08/02 12:42:00;;;;;;;;;;;;;;;;;;5074900;28;19999;-80
2022/08/02 12:44:25;;;;;;;;;;;;;;;;;;5069818;28;20294;-78
2022/08/02 12:46:50;;;;;;;;;;;;;;;;;;5064965;28;19913;-78
2022/08/02 12:49:16;;;;;;;;;;;;;;;;;;5068959;28;19966;-78
2022/08/02 12:51:41;;;;;;;;;;;;;;;;;;5055923;28;19916;-78
2022/08/02 12:54:09;;;;;;;;;;;;;;;;;;5063370;28;19913;-78
2022/08/02 12:56:35;;;;;;;;;;;;;;;;;;5061775;28;19916;-78
2022/08/02 12:59:00;;;;;;;;;;;;;;;;;;5057870;28;19920;-79
2022/08/02 13:01:25;;;;;;;;;;;;;;;;;;5068559;28;19979;-78
2022/08/02 13:03:51;;;;;;;;;;;;;;;;;;5056166;28;19912;-78
2022/08/02 13:06:16;;;;;;;;;;;;;;;;;;5063112;28;20003;-81
2022/08/02 13:08:41;;;;;;;;;;;;;;;;;;5064814;28;19983;-81
2022/08/02 13:11:07;;;;;;;;;;;;;;;;;;5057122;28;19913;-78
2022/08/02 13:13:33;;;;;;;;;;;;;;;;;;5066537;28;20360;-78
2022/08/02 13:15:58;;;;;;;;;;;;;;;;;;5056105;28;19924;-78
2022/08/02 13:18:24;;;;;;;;;;;;;;;;;;5061352;28;19962;-79
2022/08/02 13:20:49;;;;;;;;;;;;;;;;;;5062773;28;19995;-79
2022/08/02 13:23:14;;;;;;;;;;;;;;;;;;5053731;28;19959;-78
2022/08/02 13:25:40;;;;;;;;;;;;;;;;;;5066596;28;20368;-78
2022/08/02 13:28:05;;;;;;;;;;;;;;;;;;5057807;28;19962;-78
2022/08/02 13:30:30;;;;;;;;;;;;;;;;;;5059922;28;20015;-78
2022/08/02 13:32:56;;;;;;;;;;;;;;;;;;5063378;28;19919;-78
2022/08/02 13:35:21;;;;;;;;;;;;;;;;;;5049677;28;19928;-78
2022/08/02 13:37:47;;;;;;;;;;;;;;;;;;5067128;28;19928;-78
2022/08/02 13:40:13;;;;;;;;;;;;;;;;;;5059098;28;19995;-78
2022/08/02 13:42:38;;;;;;;;;;;;;;;;;;5060085;28;19913;-78
2022/08/02 13:45:03;;;;;;;;;;;;;;;;;;5065875;28;19994;-78
2022/08/02 13:47:29;;;;;;;;;;;;;;;;;;5054623;28;19909;-78
2022/08/02 13:49:54;;;;;;;;;;;;;;;;;;5066088;28;19920;-79
2022/08/02 13:52:20;;;;;;;;;;;;;;;;;;5059825;28;19966;-79
2022/08/02 13:54:45;;;;;;;;;;;;;;;;;;5059112;28;19917;-80
2022/08/02 13:57:10;;;;;;;;;;;;;;;;;;5066676;28;20011;-79
2022/08/02 13:59:36;;;;;;;;;;;;;;;;;;5055288;28;19952;-78
2022/08/02 14:02:01;;;;;;;;;;;;;;;;;;5065541;28;19913;-78
2022/08/02 14:04:27;;;;;;;;;;;;;;;;;;5059483;28;19913;-79
2022/08/02 14:06:52;;;;;;;;;;;;;;;;;;5058618;28;20351;-79
2022/08/02 14:09:17;;;;;;;;;;;;;;;;;;5067617;28;19913;-79
2022/08/02 14:11:43;;;;;;;;;;;;;;;;;;5036819;28;19950;-79
2022/08/02 14:14:08;;;;;;;;;;;;;;;;;;5063153;28;19917;-79
2022/08/02 14:16:34;;;;;;;;;;;;;;;;;;5061753;28;20291;-80
2022/08/02 14:18:59;;;;;;;;;;;;;;;;;;5056240;28;19920;-79
2022/08/02 14:21:24;;;;;;;;;;;;;;;;;;5069003;28;19935;-79
2022/08/02 14:23:50;;;;;;;;;;;;;;;;;;5055428;28;20316;-79
2022/08/02 14:26:15;;;;;;;;;;;;;;;;;;5063254;28;19917;-81
2022/08/02 14:28:40;;;;;;;;;;;;;;;;;;5062698;28;20080;-78
2022/08/02 14:31:06;;;;;;;;;;;;;;;;;;5056618;28;19913;-79
2022/08/02 14:33:31;;;;;;;;;;;;;;;;;;5067480;28;19916;-79
2022/08/02 14:35:57;;;;;;;;;;;;;;;;;;5069636;28;19920;-79
2022/08/02 14:38:22;;;;;;;;;;;;;;;;;;5062306;28;19963;-80
2022/08/02 14:40:47;;;;;;;;;;;;;;;;;;5063697;28;19934;-79
2022/08/02 14:46:01;;;;;;;;;;;;;;;;;;5002829;28;19912;-79
2022/08/02 14:48:27;;;;;;;;;;;;;;;;;;5061071;28;20000;-80
2022/08/02 14:50:52;;;;;;;;;;;;;;;;;;5065915;28;20321;-79
2022/08/02 14:53:18;;;;;;;;;;;;;;;;;;5040322;28;20379;-79
2022/08/02 14:55:43;;;;;;;;;;;;;;;;;;5071030;28;19909;-79
2022/08/02 14:58:08;;;;;;;;;;;;;;;;;;5059737;28;20295;-79
2022/08/02 15:00:34;;;;;;;;;;;;;;;;;;5065812;28;19913;-79
2022/08/02 15:02:59;;;;;;;;;;;;;;;;;;5066276;28;19917;-79
2022/08/02 15:05:24;;;;;;;;;;;;;;;;;;5041372;28;19913;-79
2022/08/02 15:07:50;;;;;;;;;;;;;;;;;;5068071;28;19978;-78
2022/08/02 15:10:15;;;;;;;;;;;;;;;;;;5059483;28;20359;-79
2022/08/02 15:12:40;;;;;;;;;;;;;;;;;;5060369;28;19917;-80
2022/08/02 15:15:06;;;;;;;;;;;;;;;;;;5066786;28;19912;-79
2022/08/02 15:17:31;;;;;;;;;;;;;;;;;;5055209;28;20292;-80
2022/08/02 15:19:57;;;;;;;;;;;;;;;;;;5065997;28;19978;-78
2022/08/02 15:22:22;;;;;;;;;;;;;;;;;;5063980;28;20007;-78
2022/08/02 15:24:48;;;;;;;;;;;;;;;;;;5074882;28;19972;-78
2022/08/02 15:27:16;;;;;;;;;;;;;;;;;;5072225;22;19932;-82
2022/08/02 15:29:41;;;;;;;;;;;;;;;;;;5051722;28;19913;-82
2022/08/02 15:32:07;;;;;;;;;;;;;;;;;;5036110;28;19920;-82
2022/08/02 15:34:32;;;;;;;;;;;;;;;;;;5007371;28;19913;-80
2022/08/02 15:36:58;;;;;;;;;;;;;;;;;;5047775;28;19917;-81
2022/08/02 15:39:26;;;;;;;;;;;;;;;;;;5034847;28;19912;-82
2022/08/02 15:41:52;;;;;;;;;;;;;;;;;;5037837;28;19916;-81
2022/08/02 15:44:19;;;;;;;;;;;;;;;;;;5050219;28;19917;-80
2022/08/02 15:46:45;;;;;;;;;;;;;;;;;;5036894;28;19974;-78
2022/08/02 15:49:10;;;;;;;;;;;;;;;;;;5054493;28;20299;-79
2022/08/02 15:51:36;;;;;;;;;;;;;;;;;;5053062;28;20334;-80
2022/08/02 15:54:01;;;;;;;;;;;;;;;;;;5036911;28;20340;-79
2022/08/02 15:56:27;;;;;;;;;;;;;;;;;;5052643;28;19917;-81
2022/08/02 15:58:52;;;;;;;;;;;;;;;;;;5057610;28;19980;-85
2022/08/02 16:01:18;;;;;;;;;;;;;;;;;;5040228;28;19995;-86
2022/08/02 16:03:43;;;;;;;;;;;;;;;;;;5038385;28;20039;-86
2022/08/02 16:06:09;;;;;;;;;;;;;;;;;;5040087;28;19913;-88
2022/08/02 16:08:34;;;;;;;;;;;;;;;;;;5039565;28;19978;-87
2022/08/02 16:11:00;;;;;;;;;;;;;;;;;;4992522;28;19917;-86
2022/08/02 16:16:10;;;;;;;;;;;;;;;;;;5047907;28;19917;-84
2022/08/02 16:18:36;;;;;;;;;;;;;;;;;;5011731;28;19909;-84
2022/08/02 16:21:02;;;;;;;;;;;;;;;;;;5007540;28;20012;-83
2022/08/02 16:23:27;;;;;;;;;;;;;;;;;;5052589;28;19913;-83
2022/08/02 16:25:53;;;;;;;;;;;;;;;;;;5021045;28;19985;-84
2022/08/02 16:28:19;;;;;;;;;;;;;;;;;;5000693;28;19924;-84
2022/08/02 16:30:45;;;;;;;;;;;;;;;;;;5014256;28;19928;-84
2022/08/02 16:33:10;;;;;;;;;;;;;;;;;;5020192;28;19913;-84
2022/08/02 16:35:36;;;;;;;;;;;;;;;;;;5029718;28;20008;-85
2022/08/02 16:38:01;;;;;;;;;;;;;;;;;;5057143;28;20423;-83
2022/08/02 16:40:27;;;;;;;;;;;;;;;;;;5041511;28;19996;-88
2022/08/02 16:42:52;;;;;;;;;;;;;;;;;;5040078;28;20264;-80
2022/08/02 16:45:18;;;;;;;;;;;;;;;;;;5038156;28;19968;-80
2022/08/02 16:47:43;;;;;;;;;;;;;;;;;;5001444;28;20355;-82
2022/08/02 16:50:09;;;;;;;;;;;;;;;;;;5040651;28;19970;-82